Terminal Aerodrome Forecast
Issued by NWS Albany, NY

Home | Current Version | Previous Version | Text Only | Print | Product List | Glossary On
Versions: 1 2 3 4 5 6 7 8 9 10 11 12 13 14 15 16 17 18 19
000
FTUS41 KALY 201700
TAFGFL
TAF
KGFL 201721Z 2018/2118 VRB03KT P6SM FEW020
     FM210500 VRB03KT P6SM BKN040
     FM210900 00000KT P6SM BKN025 OVC040
     FM211300 VRB03KT P6SM VCSH BKN018 OVC030=

USA.gov is the U.S. government's official web portal to all federal, state and local government web resources and services.